Lockeport, Canada
Current Conditions -  °F | °C
As of 9:00 PM on Thursday 18 Dec 2014 (Local Time) from CYQI Reporting Station
Snow Showers Snow Showers  
Wind Chill: 22°   Ceiling: 2000
Heat Index: 34°   Visibility: 5mi
Dew Point: 32°   Wind: 22mph
Humidity: 93%   Direction: 310°NW
Pressure: 29.58"   Gusts: 31mph
Location:  43.7°N, 65.12°W
Report Text: CYQI 190100Z 31019G27KT 5SM -SHSN FEW008 BKN020 01/M00 A2958 RMK SF1SC6 SLP019
Loading
Personal Weather Stations






























Interactive Weather Map New forecast layout! Learn more

10-Day Weather Forecast

Advertisements
Track Severe Weather on mobile